Time;durP1;ratioP1;P1;durP2;ratioP2;P2;SDS_P1;SDS_P2;PMS_P1;PMS_P2;Temp;Humidity;BMP_temperature;BMP_pressure;BME280_temperature;BME280_humidity;BME280_pressure;Samples;Min_cycle;Max_cycle;Signal;HPM_P1;HPM_P2
2023/01/13 00:00:40;;;;;;;6.85;4.88;;;;;;;-148.88;100.00;75169.94;5020139;28;20159;-79
2023/01/13 00:03:06;;;;;;;7.32;4.60;;;;;;;-148.88;100.00;75167.91;5002132;28;20022;-78
2023/01/13 00:05:31;;;;;;;8.30;7.50;;;;;;;-148.88;100.00;75163.84;5019318;28;20030;-78
2023/01/13 00:07:56;;;;;;;6.82;6.22;;;;;;;-148.88;100.00;75155.72;5019511;28;20104;-79
2023/01/13 00:10:21;;;;;;;6.22;5.47;;;;;;;-148.88;100.00;75163.84;5019612;28;20022;-79
2023/01/13 00:12:47;;;;;;;7.15;3.90;;;;;;;-148.88;100.00;75161.81;5019492;28;20021;-79
2023/01/13 00:15:12;;;;;;;6.15;3.90;;;;;;;-148.88;100.00;75163.84;5018772;28;20049;-79
2023/01/13 00:17:37;;;;;;;5.32;3.70;;;;;;;-148.88;100.00;75143.53;5001615;28;20490;-79
2023/01/13 00:20:03;;;;;;;5.05;3.83;;;;;;;-148.88;100.00;75155.72;5019348;28;20029;-80
2023/01/13 00:22:32;;;;;;;3.63;3.20;;;;;;;-148.88;100.00;75151.66;5002327;28;20053;-79
2023/01/13 00:25:00;;;;;;;3.85;2.40;;;;;;;-148.88;100.00;75149.63;5019768;28;20088;-79
2023/01/13 00:27:25;;;;;;;2.85;2.30;;;;;;;-148.88;100.00;75163.84;5021506;28;20068;-79
2023/01/13 00:29:50;;;;;;;2.80;1.67;;;;;;;-148.88;100.00;75163.84;5021314;28;20435;-80
2023/01/13 00:32:16;;;;;;;3.10;1.95;;;;;;;-148.88;100.00;75176.03;5020303;28;20060;-79
2023/01/13 00:34:41;;;;;;;2.95;1.80;;;;;;;-148.88;100.00;75161.81;5002326;28;20100;-79
2023/01/13 00:37:07;;;;;;;4.40;1.85;;;;;;;-148.88;100.00;75167.91;5019472;28;20030;-79
2023/01/13 00:39:32;;;;;;;2.45;1.48;;;;;;;-148.88;100.00;75184.16;5002015;28;20026;-79
2023/01/13 00:44:41;;;;;;;;;;;;;;;-148.88;100.00;75178.06;5019350;28;20033;-78
2023/01/13 00:47:06;;;;;;;4.43;1.50;;;;;;;-148.88;100.00;75184.16;5000173;28;19910;-79
2023/01/13 00:49:31;;;;;;;3.00;1.85;;;;;;;-148.88;100.00;75188.22;5017929;28;20833;-79
2023/01/13 00:51:57;;;;;;;4.28;2.30;;;;;;;-148.88;100.00;75196.34;5019124;28;20025;-80
2023/01/13 00:54:22;;;;;;;4.68;2.70;;;;;;;-148.88;100.00;75192.28;5018970;28;20502;-80
2023/01/13 00:56:47;;;;;;;5.78;2.92;;;;;;;-148.88;100.00;75188.22;5019012;28;20105;-79
2023/01/13 00:59:13;;;;;;;5.22;4.72;;;;;;;-148.88;100.00;75188.22;5001072;28;20433;-79
2023/01/13 01:01:39;;;;;;;5.32;3.80;;;;;;;-148.88;100.00;75196.34;5019110;28;20118;-80
2023/01/13 01:04:04;;;;;;;5.05;3.83;;;;;;;-148.88;100.00;75196.34;5019653;28;20057;-78
2023/01/13 01:06:30;;;;;;;4.70;4.15;;;;;;;-148.88;100.00;75180.09;5002524;28;20120;-80
2023/01/13 01:08:55;;;;;;;6.28;3.22;;;;;;;-148.88;100.00;75180.09;5001940;28;20033;-79
2023/01/13 01:11:27;;;;;;;6.50;3.10;;;;;;;-148.88;100.00;75180.09;5018399;28;20033;-80
2023/01/13 01:13:54;;;;;;;4.97;2.53;;;;;;;-148.88;100.00;75184.16;5000888;28;20049;-80
2023/01/13 01:16:22;;;;;;;5.00;2.60;;;;;;;-148.88;100.00;75196.34;5000674;28;20033;-79
2023/01/13 01:18:49;;;;;;;4.53;2.05;;;;;;;-148.88;100.00;75196.34;5018614;28;20507;-80
2023/01/13 01:21:15;;;;;;;4.95;1.90;;;;;;;-148.88;100.00;75196.34;5018397;28;20041;-79
2023/01/13 01:23:41;;;;;;;3.05;1.60;;;;;;;-148.88;100.00;75200.41;5000770;28;20597;-79
2023/01/13 01:26:27;;;;;;;4.22;1.80;;;;;;;-148.88;100.00;75202.44;5018715;28;20030;-79
2023/01/13 01:28:53;;;;;;;4.30;1.75;;;;;;;-148.88;100.00;75214.63;4999986;28;20077;-79
2023/01/13 01:31:27;;;;;;;4.47;1.48;;;;;;;-148.88;100.00;75214.63;5018287;28;20026;-79
2023/01/13 01:33:53;;;;;;;6.78;2.13;;;;;;;-148.88;100.00;75222.75;5018594;28;20088;-79
2023/01/13 01:36:20;;;;;;;3.05;1.50;;;;;;;-148.88;100.00;75216.66;5018784;28;20026;-80
2023/01/13 01:38:47;;;;;;;2.85;1.73;;;;;;;-148.88;100.00;75216.66;5018878;28;20109;-80
2023/01/13 01:41:15;;;;;;;2.10;1.25;;;;;;;-148.88;100.00;75230.88;5019617;28;20159;-80
2023/01/13 01:44:03;;;;;;;4.43;1.40;;;;;;;-148.88;100.00;75228.84;5018884;28;20076;-80
2023/01/13 01:46:28;;;;;;;3.90;1.25;;;;;;;-148.88;100.00;75236.97;5000608;28;20026;-80
2023/01/13 01:48:58;;;;;;;6.00;1.40;;;;;;;-148.88;100.00;75241.03;5000625;28;20057;-80
2023/01/13 01:51:24;;;;;;;5.50;1.50;;;;;;;-148.88;100.00;75245.09;5000517;28;20079;-79
2023/01/13 01:53:55;;;;;;;5.28;2.03;;;;;;;-148.88;100.00;75232.91;5066604;23;20046;-91
2023/01/13 01:57:09;;;;;;;4.65;1.50;;;;;;;-148.88;100.00;75236.97;5001880;28;20034;-90
2023/01/13 01:59:10;;;;;;;4.57;1.52;;;;;;;-148.88;100.00;75251.19;5011719;28;20042;-90
2023/01/13 02:01:39;;;;;;;5.70;1.55;;;;;;;-148.88;100.00;75257.28;5018549;28;20084;-88
2023/01/13 02:04:38;;;;;;;7.10;2.05;;;;;;;-148.88;100.00;75271.50;5000155;28;20017;-90
2023/01/13 02:07:04;;;;;;;4.53;1.30;;;;;;;-148.88;100.00;75279.59;5033592;22;20839;-84
2023/01/13 02:09:30;;;;;;;3.33;1.52;;;;;;;-148.88;100.00;75281.66;5034207;28;20065;-84
2023/01/13 02:14:40;;;;;;;9.95;1.30;;;;;;;-148.88;100.00;75287.72;5034496;28;20083;-84
2023/01/13 02:17:24;;;;;;;2.95;1.10;;;;;;;-148.88;100.00;75287.72;5016993;28;20044;-84
2023/01/13 02:20:18;;;;;;;4.53;1.40;;;;;;;-148.88;100.00;75281.66;5016773;28;20022;-84
2023/01/13 02:24:52;;;;;;;8.00;2.17;;;;;;;-148.88;100.00;75285.69;5036528;28;20421;-84
2023/01/13 02:26:35;;;;;;;4.45;1.67;;;;;;;-148.88;100.00;75293.81;5035466;28;20338;-84
2023/01/13 02:32:17;;;;;;;7.20;1.50;;;;;;;-148.88;100.00;75306.00;5035511;28;20076;-84
2023/01/13 02:34:52;;;;;;;8.98;1.73;;;;;;;-148.88;100.00;75314.13;5037688;28;20029;-84
2023/01/13 02:37:27;;;;;;;6.53;1.40;;;;;;;-148.88;100.00;75310.06;5035958;28;20026;-84
2023/01/13 02:40:14;;;;;;;8.10;1.55;;;;;;;-148.88;100.00;75318.19;5017829;28;20485;-85
2023/01/13 02:45:40;;;;;;;5.90;1.65;;;;;;;-148.88;100.00;75340.53;5003451;28;20034;-84
2023/01/13 02:48:09;;;;;;;9.15;1.58;;;;;;;-148.88;100.00;75324.28;5033973;28;20021;-83
2023/01/13 02:50:40;;;;;;;6.13;1.67;;;;;;;-148.88;100.00;75338.50;5015876;28;20323;-85
2023/01/13 02:53:21;;;;;;;12.63;1.70;;;;;;;-148.88;100.00;75354.75;5016304;28;20496;-84
2023/01/13 02:55:50;;;;;;;7.65;1.83;;;;;;;-148.88;100.00;75336.47;5016608;28;20056;-84
2023/01/13 02:58:20;;;;;;;9.90;2.00;;;;;;;-148.88;100.00;75344.59;5017538;28;20025;-84
2023/01/13 03:00:47;;;;;;;7.85;1.95;;;;;;;-148.88;100.00;75342.56;5017314;28;20080;-84
2023/01/13 03:03:13;;;;;;;9.55;1.70;;;;;;;-148.88;100.00;75358.81;5035175;28;20032;-84
2023/01/13 03:05:41;;;;;;;9.02;1.30;;;;;;;-148.88;100.00;75346.63;5018288;28;20026;-85
2023/01/13 03:08:32;;;;;;;11.35;1.85;;;;;;;-148.88;100.00;75344.59;5019665;28;20029;-84
2023/01/13 03:11:31;;;;;;;9.07;1.70;;;;;;;-148.88;100.00;75358.81;5016738;28;20026;-84
2023/01/13 03:14:19;;;;;;;7.90;1.63;;;;;;;-148.88;100.00;75358.81;5006549;28;20087;-83
2023/01/13 03:17:10;;;;;;;8.85;2.25;;;;;;;-148.88;100.00;75371.00;5017676;28;20486;-83
2023/01/13 03:19:45;;;;;;;7.93;1.65;;;;;;;-148.88;100.00;75366.94;5033376;28;20091;-85
2023/01/13 03:22:15;;;;;;;13.15;2.42;;;;;;;-148.88;100.00;75364.91;5015198;28;20021;-84
2023/01/13 03:24:50;;;;;;;10.25;2.25;;;;;;;-148.88;100.00;75362.88;5032873;28;20025;-84
2023/01/13 03:27:41;;;;;;;10.65;1.60;;;;;;;-148.88;100.00;75379.13;5014542;28;20025;-84
2023/01/13 03:30:14;;;;;;;11.02;1.90;;;;;;;-148.88;100.00;75381.16;5014844;28;20033;-85
2023/01/13 03:32:51;;;;;;;9.50;1.95;;;;;;;-148.88;100.00;75387.25;5032579;28;20029;-85
2023/01/13 03:35:27;;;;;;;7.75;1.92;;;;;;;-148.88;100.00;75371.00;5014957;28;20033;-84
2023/01/13 03:38:06;;;;;;;9.98;1.88;;;;;;;-148.88;100.00;75368.97;5032397;28;20500;-84
2023/01/13 03:40:36;;;;;;;14.27;2.13;;;;;;;-148.88;100.00;75371.00;5014800;28;20026;-85
2023/01/13 03:45:59;;;;;;;9.38;1.80;;;;;;;-148.88;100.00;75366.94;5032708;28;20200;-84
2023/01/13 03:48:27;;;;;;;10.07;1.80;;;;;;;-148.88;100.00;75358.81;5032252;28;20052;-84
2023/01/13 03:50:57;;;;;;;22.67;1.85;;;;;;;-148.88;100.00;75358.81;5014958;28;20462;-83
2023/01/13 03:53:34;;;;;;;8.82;1.80;;;;;;;-148.88;100.00;75362.88;5014720;28;20026;-84
2023/01/13 03:56:14;;;;;;;14.48;1.67;;;;;;;-148.88;100.00;75364.91;5033951;28;20059;-83
2023/01/13 03:58:45;;;;;;;9.63;1.58;;;;;;;-148.88;100.00;75354.75;5016437;28;20029;-84
2023/01/13 04:01:18;;;;;;;8.30;2.03;;;;;;;-148.88;100.00;75350.69;5014714;28;20037;-85
2023/01/13 04:03:53;;;;;;;11.00;2.03;;;;;;;-148.88;100.00;75373.03;5015119;28;20018;-84
2023/01/13 04:06:18;;;;;;;12.02;2.05;;;;;;;-148.88;100.00;75379.13;5014677;28;20095;-83
2023/01/13 04:08:52;;;;;;;12.52;2.85;;;;;;;-148.88;100.00;75362.88;5016147;28;20038;-84
2023/01/13 04:11:31;;;;;;;10.45;2.70;;;;;;;-148.88;100.00;75371.00;5032446;28;20029;-85
2023/01/13 04:13:58;;;;;;;10.07;2.40;;;;;;;-148.88;100.00;75368.97;5014530;28;20091;-84
2023/01/13 04:16:24;;;;;;;13.15;2.47;;;;;;;-148.88;100.00;75364.91;5014502;28;20459;-85
2023/01/13 04:18:49;;;;;;;12.27;2.28;;;;;;;-148.88;100.00;75371.00;5031958;28;20486;-84
2023/01/13 04:21:15;;;;;;;12.35;2.08;;;;;;;-148.88;100.00;75364.91;5018255;28;20034;-84
2023/01/13 04:23:40;;;;;;;17.33;2.10;;;;;;;-148.88;100.00;75360.84;5018013;28;20021;-84
2023/01/13 04:26:06;;;;;;;14.07;2.33;;;;;;;-148.88;100.00;75371.00;5018032;28;20040;-85
2023/01/13 04:28:33;;;;;;;12.13;2.70;;;;;;;-148.88;100.00;75371.00;5017546;28;20064;-86
2023/01/13 04:30:59;;;;;;;11.32;2.40;;;;;;;-148.88;100.00;75362.88;5017525;28;20400;-84
2023/01/13 04:33:27;;;;;;;10.77;2.22;;;;;;;-148.88;100.00;75354.75;5018462;28;20113;-85
2023/01/13 04:35:52;;;;;;;14.25;2.80;;;;;;;-148.88;100.00;75346.63;5017463;28;20025;-85
2023/01/13 04:38:19;;;;;;;12.48;1.75;;;;;;;-148.88;100.00;75340.53;5035321;28;20028;-84
2023/01/13 04:40:46;;;;;;;13.23;2.35;;;;;;;-148.88;100.00;75344.59;5035516;28;20038;-85
2023/01/13 04:43:11;;;;;;;11.02;1.77;;;;;;;-148.88;99.99;75352.72;5035688;28;20071;-84
2023/01/13 04:45:37;;;;;;;13.73;2.55;;;;;;;-148.88;100.00;75360.84;5017357;28;20448;-84
2023/01/13 04:48:03;;;;;;;8.50;1.92;;;;;;;-148.88;100.00;75352.72;5034684;28;20466;-85
2023/01/13 04:50:28;;;;;;;9.35;1.98;;;;;;;-148.88;100.00;75364.91;5035061;28;20030;-85
2023/01/13 04:52:54;;;;;;;12.15;2.40;;;;;;;-148.88;100.00;75379.13;5016940;28;20360;-84
2023/01/13 04:55:21;;;;;;;9.75;2.47;;;;;;;-148.88;100.00;75387.25;5017056;28;20025;-85
2023/01/13 04:57:46;;;;;;;12.10;1.70;;;;;;;-148.88;100.00;75395.38;5017278;28;20021;-85
2023/01/13 05:00:15;;;;;;;19.70;3.10;;;;;;;-148.88;100.00;75411.63;5017463;28;20029;-86
2023/01/13 05:02:40;;;;;;;14.07;2.05;;;;;;;-148.88;100.00;75409.59;5016802;28;20112;-84
2023/01/13 05:05:06;;;;;;;17.00;2.25;;;;;;;-148.88;100.00;75381.16;5034575;28;20065;-86
2023/01/13 05:07:31;;;;;;;12.40;1.90;;;;;;;-148.88;100.00;75375.06;5016940;28;20060;-86
2023/01/13 05:09:57;;;;;;;12.68;2.20;;;;;;;-148.88;100.00;75379.13;5034927;28;20036;-86
2023/01/13 05:17:51;;;;;;;10.80;3.20;;;;;;;-148.88;100.00;75379.13;5034858;28;20132;-86
2023/01/13 05:20:17;;;;;;;15.30;2.25;;;;;;;-148.88;99.69;75371.00;5034483;28;20053;-85
2023/01/13 05:25:27;;;;;;;;;;;;;;;-148.88;98.85;75366.94;5035533;28;20116;-85
2023/01/13 05:27:58;;;;;;;11.18;1.88;;;;;;;-148.88;98.50;75364.91;5016451;28;19937;-86
2023/01/13 05:30:26;;;;;;;11.52;2.28;;;;;;;-148.88;98.92;75371.00;5034492;28;20104;-85
2023/01/13 05:32:51;;;;;;;9.43;2.08;;;;;;;-148.88;98.50;75366.94;5016145;28;20027;-85
2023/01/13 05:35:17;;;;;;;12.20;2.47;;;;;;;-148.88;99.26;75375.06;5034291;28;20120;-85
2023/01/13 05:37:43;;;;;;;10.07;1.75;;;;;;;-148.88;99.74;75381.16;5034018;28;20017;-84
2023/01/13 05:43:24;;;;;;;14.00;1.95;;;;;;;-148.88;99.11;75379.13;5034505;28;20025;-84
2023/01/13 05:45:51;;;;;;;12.55;2.03;;;;;;;-148.88;99.91;75389.28;5021612;28;20041;-84
2023/01/13 05:48:18;;;;;;;9.75;2.63;;;;;;;-148.88;100.00;75401.47;5016147;28;20029;-83
2023/01/13 05:50:52;;;;;;;17.42;2.70;;;;;;;-148.88;100.00;75407.56;5034364;28;20027;-84
2023/01/13 05:53:18;;;;;;;13.68;1.77;;;;;;;-148.88;100.00;75407.56;5017818;28;20105;-83
2023/01/13 05:55:44;;;;;;;6.93;1.92;;;;;;;-148.88;100.00;75407.56;5035221;28;20060;-85
2023/01/13 05:58:12;;;;;;;12.45;1.73;;;;;;;-148.88;100.00;75427.88;5018470;28;20105;-85
2023/01/13 06:00:37;;;;;;;10.25;1.77;;;;;;;-148.88;100.00;75405.53;5018021;28;20029;-84
2023/01/13 06:03:04;;;;;;;8.60;1.60;;;;;;;-148.88;100.00;75399.44;5035659;28;20024;-84
2023/01/13 06:05:36;;;;;;;9.80;1.83;;;;;;;-148.88;100.00;75403.50;5016749;28;20033;-85
2023/01/13 06:08:02;;;;;;;7.78;1.75;;;;;;;-148.88;100.00;75415.69;5038610;28;20036;-84
2023/01/13 06:10:28;;;;;;;7.10;1.65;;;;;;;-148.88;99.82;75401.47;5017374;28;20021;-87
2023/01/13 06:12:54;;;;;;;7.50;1.05;;;;;;;-148.88;99.57;75399.44;5016903;28;20021;-86
2023/01/13 06:15:19;;;;;;;8.30;1.15;;;;;;;-148.88;99.77;75391.31;5015727;28;20021;-85
2023/01/13 06:17:45;;;;;;;7.13;2.15;;;;;;;-148.88;99.17;75387.25;5015865;28;20021;-86
2023/01/13 06:20:12;;;;;;;9.73;1.55;;;;;;;-148.88;99.04;75385.22;5015614;28;20470;-85
2023/01/13 06:22:40;;;;;;;15.15;2.30;;;;;;;-148.88;99.18;75395.38;5032873;28;20029;-86
2023/01/13 06:25:32;;;;;;;6.53;1.65;;;;;;;-148.88;99.48;75397.41;5016007;28;20508;-86
2023/01/13 06:27:59;;;;;;;11.68;1.60;;;;;;;-148.88;99.06;75403.50;5033236;28;20405;-88
2023/01/13 06:30:28;;;;;;;9.18;1.05;;;;;;;-148.88;98.68;75391.31;5015376;28;20056;-86
2023/01/13 06:32:57;;;;;;;7.68;1.15;;;;;;;-148.88;99.31;75399.44;5015105;28;20104;-86
2023/01/13 06:35:27;;;;;;;4.57;1.08;;;;;;;-148.88;98.70;75395.38;5015366;28;20116;-86
2023/01/13 06:37:56;;;;;;;10.65;1.13;;;;;;;-148.88;99.03;75397.41;5015352;28;20026;-86
2023/01/13 06:40:22;;;;;;;9.05;1.50;;;;;;;-148.88;98.87;75399.44;5015156;28;20049;-85
2023/01/13 06:45:33;;;;;;;7.13;1.55;;;;;;;-148.88;98.41;75415.69;5032546;28;20441;-86
2023/01/13 06:47:59;;;;;;;7.03;1.25;;;;;;;-148.88;97.99;75417.72;5015074;28;20026;-86
2023/01/13 06:50:26;;;;;;;8.82;1.13;;;;;;;-148.88;98.36;75421.78;5014662;28;20025;-84
2023/01/13 06:52:51;;;;;;;10.88;1.50;;;;;;;-148.88;98.41;75427.88;5032799;28;20026;-85
2023/01/13 06:55:16;;;;;;;7.82;1.67;;;;;;;-148.88;97.92;75411.63;5036700;28;20032;-85
2023/01/13 06:57:56;;;;;;;5.90;1.17;;;;;;;-148.88;97.02;75405.53;5016150;28;20112;-87
2023/01/13 07:00:23;;;;;;;7.78;1.05;;;;;;;-148.88;97.85;75395.38;5015120;28;20083;-86
2023/01/13 07:02:48;;;;;;;8.18;1.30;;;;;;;-148.88;98.55;75417.72;5015278;28;20448;-84
2023/01/13 07:05:15;;;;;;;9.15;1.38;;;;;;;-148.88;98.09;75409.59;5033465;28;20121;-85
2023/01/13 07:07:40;;;;;;;7.22;1.40;;;;;;;-148.88;97.85;75407.56;5015295;28;20331;-86
2023/01/13 07:10:08;;;;;;;8.50;1.48;;;;;;;-148.88;97.97;75423.81;5032963;28;20032;-85
2023/01/13 07:15:17;;;;;;;6.25;1.15;;;;;;;-148.88;97.92;75415.69;5015338;28;20048;-88
2023/01/13 07:15:21;;;;;;;6.60;1.40;;;;;;;-148.88;97.91;75415.69;5032632;28;20112;-86
2023/01/13 07:17:47;;;;;;;10.18;1.30;;;;;;;-148.88;98.17;75409.59;5015195;28;20061;-87
2023/01/13 07:20:12;;;;;;;8.82;1.80;;;;;;;-148.88;98.75;75427.88;5015776;28;20052;-88
2023/01/13 07:22:37;;;;;;;4.65;1.15;;;;;;;-148.88;99.22;75423.81;5015224;28;20112;-86
2023/01/13 07:25:03;;;;;;;7.80;1.50;;;;;;;-148.88;99.88;75442.09;5015327;28;20025;-85
2023/01/13 07:27:28;;;;;;;8.57;1.63;;;;;;;-148.88;99.11;75423.81;5033099;28;20481;-85
2023/01/13 07:29:56;;;;;;;14.75;3.10;;;;;;;-148.88;99.95;75446.16;5032584;28;20378;-85
2023/01/13 07:32:22;;;;;;;5.78;1.52;;;;;;;-148.88;100.00;75446.16;5016448;28;20574;-84
2023/01/13 07:34:47;;;;;;;8.48;1.65;;;;;;;-148.88;100.00;75442.09;5014981;28;20033;-87
2023/01/13 07:37:12;;;;;;;8.90;1.73;;;;;;;-148.88;100.00;75442.09;5032638;28;20025;-86
2023/01/13 07:39:38;;;;;;;8.75;1.90;;;;;;;-148.88;100.00;75464.44;5033563;28;20033;-86
2023/01/13 07:44:47;;;;;;;13.27;2.05;;;;;;;-148.88;100.00;75450.22;5033865;28;20089;-87
2023/01/13 07:47:12;;;;;;;9.63;1.40;;;;;;;-148.88;100.00;75458.34;5015597;28;20037;-86
2023/01/13 07:49:37;;;;;;;7.85;1.65;;;;;;;-148.88;100.00;75466.47;5014926;28;20079;-87
2023/01/13 07:52:03;;;;;;;9.13;1.90;;;;;;;-148.88;100.00;75464.44;5015680;28;20074;-87
2023/01/13 07:54:28;;;;;;;8.98;1.40;;;;;;;-148.88;99.58;75454.28;5015744;28;20033;-87
2023/01/13 07:56:57;;;;;;;5.63;1.40;;;;;;;-148.88;98.49;75456.31;5018100;28;20028;-86
2023/01/13 07:59:22;;;;;;;10.65;1.70;;;;;;;-148.88;98.83;75444.13;5019941;28;20033;-87
2023/01/13 08:01:47;;;;;;;9.40;1.63;;;;;;;-148.88;98.14;75444.13;5037209;28;20111;-87
2023/01/13 08:04:16;;;;;;;12.27;1.90;;;;;;;-148.88;98.88;75448.19;5018541;28;20062;-86
2023/01/13 08:06:41;;;;;;;14.45;2.45;;;;;;;-148.88;98.59;75460.38;5019013;28;20041;-87
2023/01/13 08:09:07;;;;;;;16.25;2.15;;;;;;;-148.88;98.33;75452.25;5036710;28;20390;-86
2023/01/13 08:11:32;;;;;;;7.13;1.55;;;;;;;-148.88;98.60;75452.25;5018315;28;20021;-86
2023/01/13 08:13:58;;;;;;;7.55;2.20;;;;;;;-148.88;98.65;75460.38;5018440;28;20056;-87
2023/01/13 08:16:23;;;;;;;10.75;1.98;;;;;;;-148.88;98.17;75456.31;5018107;28;20029;-86
2023/01/13 08:18:49;;;;;;;5.25;2.00;;;;;;;-148.88;97.18;75456.31;5017798;28;20021;-86
2023/01/13 08:21:14;;;;;;;9.55;2.08;;;;;;;-148.88;98.14;75458.34;5017992;28;20495;-87
2023/01/13 08:23:41;;;;;;;10.18;2.28;;;;;;;-148.88;96.84;75460.38;5017820;28;20014;-87
2023/01/13 08:26:09;;;;;;;7.97;1.77;;;;;;;-148.88;97.28;75456.31;5017745;28;20056;-86
2023/01/13 08:28:35;;;;;;;13.15;2.17;;;;;;;-148.88;97.03;75452.25;5018200;28;20485;-87
2023/01/13 08:31:02;;;;;;;6.40;1.55;;;;;;;-148.88;97.21;75452.25;5035839;28;20492;-87
2023/01/13 08:33:28;;;;;;;8.45;1.88;;;;;;;-148.88;96.86;75446.16;5017571;28;20393;-87
2023/01/13 08:35:54;;;;;;;7.18;1.45;;;;;;;-148.88;97.01;75448.19;5017464;28;20029;-87
2023/01/13 08:38:53;;;;;;;6.47;1.42;;;;;;;-148.88;96.24;75454.28;5016798;28;20038;-86
2023/01/13 08:41:53;;;;;;;14.05;2.20;;;;;;;-148.88;96.05;75448.19;5016826;28;20056;-85
2023/01/13 08:44:05;;;;;;;6.93;1.38;;;;;;;-148.88;94.62;75444.13;5032906;28;20030;-86
2023/01/13 08:46:31;;;;;;;4.93;1.35;;;;;;;-148.88;93.80;75442.09;5017623;28;20481;-87
2023/01/13 08:48:56;;;;;;;10.07;1.92;;;;;;;-148.88;94.64;75446.16;5017595;28;20077;-88
2023/01/13 08:51:21;;;;;;;10.13;2.33;;;;;;;-148.88;94.91;75446.16;5017525;28;20021;-86
2023/01/13 08:53:53;;;;;;;8.20;1.65;;;;;;;-148.88;94.37;75448.19;5018110;28;20343;-87
2023/01/13 08:56:40;;;;;;;;;;;;;;;;;;;;;
2023/01/13 08:59:18;;;;;;;18.15;1.90;;;;;;;-148.88;93.85;75438.03;5035340;28;20033;-89
2023/01/13 09:01:51;;;;;;;8.93;2.05;;;;;;;-148.88;93.17;75436.00;5017174;28;20029;-86
2023/01/13 09:04:24;;;;;;;6.70;1.40;;;;;;;-148.88;93.03;75452.25;5017832;28;20104;-86
2023/01/13 09:07:01;;;;;;;;;;;;;;;-148.88;93.61;75444.13;5018074;28;20029;-88
2023/01/13 09:09:26;;;;;;;8.43;1.52;;;;;;;-148.88;92.61;75438.03;5015135;28;19920;-88
2023/01/13 09:14:39;;;;;;;11.98;1.83;;;;;;;-148.88;92.17;75427.88;5035184;28;20028;-87
2023/01/13 09:17:06;;;;;;;10.93;2.55;;;;;;;-148.88;92.67;75444.13;5017138;28;20029;-87
2023/01/13 09:19:40;;;;;;;10.30;1.65;;;;;;;-148.88;92.51;75448.19;5016638;28;20025;-87
2023/01/13 09:22:06;;;;;;;13.63;1.50;;;;;;;-148.88;91.73;75448.19;5015679;28;20041;-88
2023/01/13 09:24:32;;;;;;;5.97;1.40;;;;;;;-148.88;92.87;75450.22;5017630;28;20393;-86
2023/01/13 09:26:57;;;;;;;12.18;1.60;;;;;;;-148.88;92.29;75456.31;5016801;28;20033;-87
2023/01/13 09:29:22;;;;;;;9.63;1.70;;;;;;;-148.88;92.31;75458.34;5017086;28;20032;-87
2023/01/13 09:31:48;;;;;;;6.38;1.23;;;;;;;-148.88;92.50;75472.56;5016375;28;20025;-88
2023/01/13 09:37:07;;;;;;;8.15;1.55;;;;;;;-148.88;91.61;75468.50;5035562;28;20535;-88
2023/01/13 09:39:34;;;;;;;7.40;1.75;;;;;;;-148.88;92.31;75466.47;5016609;28;20033;-86
2023/01/13 09:45:05;;;;;;;8.15;2.00;;;;;;;-148.88;90.86;75468.50;5035809;28;20044;-86
2023/01/13 09:47:54;;;;;;;10.00;1.50;;;;;;;-148.88;90.19;75464.44;5016427;28;20040;-86
2023/01/13 09:50:40;;;;;;;11.40;1.58;;;;;;;-148.88;89.38;75464.44;5016761;28;20536;-87
2023/01/13 09:53:11;;;;;;;8.48;1.70;;;;;;;-148.88;88.69;75470.53;5033656;28;20053;-87
2023/01/13 09:55:36;;;;;;;10.05;1.45;;;;;;;-148.88;88.08;75456.31;5016849;28;20131;-87
2023/01/13 09:58:12;;;;;;;7.38;1.45;;;;;;;-148.88;87.87;75462.41;5016293;28;20026;-86
2023/01/13 10:01:00;;;;;;;9.75;2.00;;;;;;;-148.88;88.19;75460.38;5016510;28;20040;-87
2023/01/13 10:03:28;;;;;;;9.52;1.70;;;;;;;-148.88;87.36;75454.28;5016151;28;20050;-89
2023/01/13 10:06:16;;;;;;;7.80;1.30;;;;;;;-148.88;87.36;75454.28;5016156;28;20033;-87
2023/01/13 10:08:44;;;;;;;12.15;2.30;;;;;;;-148.88;88.68;75472.56;5018639;28;20029;-86
2023/01/13 10:14:26;;;;;;;8.40;1.55;;;;;;;-148.88;88.51;75448.19;5044954;28;20029;-87
2023/01/13 10:17:03;;;;;;;9.40;1.67;;;;;;;-148.88;87.25;75431.94;5033966;28;20032;-88
2023/01/13 10:19:39;;;;;;;12.75;2.00;;;;;;;-148.88;88.63;75433.97;5015755;28;20033;-87
2023/01/13 10:22:11;;;;;;;9.82;1.60;;;;;;;-148.88;87.63;75429.91;5015727;28;20029;-87
2023/01/13 10:25:17;;;;;;;13.65;1.95;;;;;;;-148.88;88.32;75427.88;5015558;28;20112;-87
2023/01/13 10:27:48;;;;;;;13.70;1.85;;;;;;;-148.88;88.41;75429.91;5016207;28;20493;-87
2023/01/13 10:30:16;;;;;;;12.80;3.47;;;;;;;-148.88;87.09;75425.84;5015664;28;20551;-87
2023/01/13 10:32:45;;;;;;;7.38;1.60;;;;;;;-148.88;87.28;75407.56;5015870;28;20397;-88
2023/01/13 10:35:10;;;;;;;18.35;2.25;;;;;;;-148.88;86.87;75403.50;5015777;28;20025;-86
2023/01/13 10:37:36;;;;;;;7.63;1.73;;;;;;;-148.88;86.97;75411.63;5015872;28;20021;-85
2023/01/13 10:40:03;;;;;;;14.32;1.90;;;;;;;-148.88;86.93;75403.50;5016176;28;20363;-87
2023/01/13 10:42:29;;;;;;;9.98;1.42;;;;;;;-148.88;86.83;75383.19;5015499;28;20025;-88
2023/01/13 10:44:58;;;;;;;9.52;1.52;;;;;;;-148.88;85.97;75387.25;5033530;28;20397;-87
2023/01/13 10:47:28;;;;;;;8.07;1.60;;;;;;;-148.88;85.58;75399.44;5015615;28;20052;-88
2023/01/13 10:50:12;;;;;;;7.82;1.60;;;;;;;-148.88;86.01;75415.69;5015264;28;20021;-87
2023/01/13 10:52:43;;;;;;;7.10;1.80;;;;;;;-148.88;85.88;75415.69;5015838;28;20022;-87
2023/01/13 10:55:29;;;;;;;9.52;1.77;;;;;;;-148.88;85.73;75407.56;5033199;28;20048;-88
2023/01/13 10:57:55;;;;;;;9.88;1.85;;;;;;;-148.88;85.67;75407.56;5015300;28;20045;-86
2023/01/13 11:00:32;;;;;;;9.57;2.17;;;;;;;-148.88;86.52;75393.34;5015762;28;20028;-87
2023/01/13 11:03:26;;;;;;;8.43;1.75;;;;;;;-148.88;85.44;75395.38;5033439;28;20023;-87
2023/01/13 11:06:01;;;;;;;8.75;1.55;;;;;;;-148.88;86.18;75393.34;5013693;28;20428;-87
2023/01/13 11:08:30;;;;;;;8.57;1.55;;;;;;;-148.88;85.89;75395.38;5015551;28;20521;-87
2023/01/13 11:10:58;;;;;;;13.25;2.00;;;;;;;-148.88;86.09;75399.44;5016256;28;20120;-87
2023/01/13 11:13:34;;;;;;;8.52;2.20;;;;;;;-148.88;85.67;75399.44;5015694;28;20026;-85
2023/01/13 11:16:09;;;;;;;9.55;2.45;;;;;;;-148.88;85.80;75407.56;5015094;28;20025;-84
2023/01/13 11:18:50;;;;;;;9.00;2.00;;;;;;;-148.88;87.22;75397.41;5033647;28;20029;-85
2023/01/13 11:21:23;;;;;;;8.50;2.97;;;;;;;-148.88;85.84;75399.44;5016012;28;20120;-86
2023/01/13 11:24:05;;;;;;;14.30;2.17;;;;;;;-148.88;86.62;75397.41;5015631;28;20036;-84
2023/01/13 11:26:46;;;;;;;15.07;2.42;;;;;;;-148.88;85.95;75397.41;5015737;28;20124;-85
2023/01/13 11:29:25;;;;;;;10.18;1.98;;;;;;;-148.88;86.10;75391.31;5016090;28;20071;-85
2023/01/13 11:31:57;;;;;;;12.57;1.63;;;;;;;-148.88;85.98;75387.25;5019261;28;20071;-84
2023/01/13 11:34:34;;;;;;;9.15;1.77;;;;;;;-148.88;86.83;75379.13;5020798;28;20500;-85
2023/01/13 11:37:02;;;;;;;9.00;1.85;;;;;;;-148.88;85.81;75358.81;5020704;28;20018;-85
2023/01/13 11:39:46;;;;;;;8.40;2.20;;;;;;;-148.88;85.54;75352.72;5020183;28;20018;-85
2023/01/13 11:42:30;;;;;;;;;;;;;;;-148.88;84.94;75368.97;5020985;28;20113;-86
2023/01/13 11:45:54;;;;;;;9.23;2.30;;;;;;;-148.88;87.86;75381.16;5019347;28;19948;-85
2023/01/13 11:48:22;;;;;;;13.07;2.23;;;;;;;-148.88;87.03;75387.25;4990100;28;20032;-84
2023/01/13 11:50:55;;;;;;;8.20;1.77;;;;;;;-148.88;87.46;75387.25;5031794;28;20025;-85
2023/01/13 11:53:48;;;;;;;10.50;2.33;;;;;;;-148.88;88.50;75399.44;5020334;28;20025;-85
2023/01/13 11:56:35;;;;;;;8.23;2.15;;;;;;;-148.88;87.12;75403.50;5019975;28;20394;-85
2023/01/13 11:59:48;;;;;;;12.38;1.67;;;;;;;-148.88;86.86;75387.25;5018748;28;20047;-85
2023/01/13 12:02:32;;;;;;;10.23;1.70;;;;;;;-148.88;87.60;75387.25;4967879;28;20031;-85
2023/01/13 12:05:06;;;;;;;;;;;;;;;-148.88;88.39;75395.38;5021846;28;20029;-85
2023/01/13 12:08:15;;;;;;;8.88;1.40;;;;;;;-148.88;88.45;75405.53;5019521;28;19916;-85
2023/01/13 12:11:05;;;;;;;9.05;2.05;;;;;;;-148.88;87.89;75407.56;5018781;28;20064;-83
2023/01/13 12:14:05;;;;;;;8.80;1.55;;;;;;;-148.88;87.83;75409.59;5018703;28;20021;-84
2023/01/13 12:16:31;;;;;;;9.88;1.63;;;;;;;-148.88;87.48;75405.53;5018207;28;20021;-87